Petersburg James A Johnson Airport (PSG/PAPG)




Flight Aircraft Arriving
GRZ5146 B722
B738
PAJN - Juneau International Airport
United StatesAlaska Juneau, Alaska
Flight Aircraft Departing
GRZ5145 B722
B738
PAJN - Juneau International Airport
United StatesAlaska Juneau, Alaska
Airport Information
Location: Petersburg, US
Coordinates: 56.8015 / -132.946
Elevation:
Time Offset:
Local Time:
UTC Time:
Jet A Price: $0.79/lbs

Current Weather
METAR: PAPG 300756Z AUTO 25004KT 10SM -RA BKN018 OVC038 01/00 A2934 RMK AO2 UPB03E31RAB31FZRAE03SNE03 SLP940 P0000 T00060000 FZRANO
TAF: PAPG 300539Z 3006/0106 26004KT 6SM -SHRASN BR OVC025 FM301200 VRB03KT P6SM VCSH SCT025 BKN035 FM010500 15010KT 6SM RA BR OVC020 WS020/14050KT AMD LTD TO CLD VIS AND WIND 3006/3015

Recent Arrivals
Date Flight Type Depart
Recent Departures
Date Flight Type Arrive